Defiance, Iowa
Current Conditions -  °F | °C
As of 9:15 PM on Tuesday 21 Oct 2014 (Local Time) from KDNS Reporting Station
Broken Clouds Broken Clouds  
Wind Chill: 12°   Ceiling: 3200
Heat Index: 12°   Visibility: 10mi
Dew Point:   Wind: 10mph
Humidity: 72%   Direction: 120°ESE
Pressure: 30.07"   Gusts: NA
Location:  41.82°N, 95.34°W
Report Text: KDNS 220215Z AUTO 12009KT 10SM BKN032 12/07 A3007 RMK AO2
Loading
Personal Weather Stations






























Interactive Weather Map
Tropical Storm Tracking
New forecast layout! Learn more

10-Day Weather Forecast

Advertisements
Track Severe Weather on mobile